Aérodrome :
LOGIN :

S'inscrire | Disclaimer

   EN    FR    IT 

 










Légende :    VFR   VFR Marginal   IFR   IFR Intensif   IFR Très Intensif
Visi : 
Plafond : 
>= 8 km
>= 3000ft
5 à 8 km
1000 à 3000 ft
1500m à 5 km
500 à 1000 ft
800 à 1500m
200 à 500 ft
< 800m
< 200 ft
Symboles :   Orages  Brouillard  Fortes neiges  Fortes précipitations  Vent > 20 kt
SIGMETs :   Divers  Orages  Givrage  Turbulence  Onde Orograph.  Cendres Volcan.







- Altitude de l'aérodrome : 13 ft
- Code IATA : OST


EBOS - Oostend bruges Int.

DERNIER METAR :
  • 290520Z 16003KT CAVOK 06/03 Q1017 NOSIG

METARs EXPIRÉS :
  • 290450Z 16003KT 9999 FEW045 05/03 Q1017 NOSIG
  • 290420Z 15004KT 9999 FEW045 05/02 Q1017 NOSIG
  • 290350Z 15002KT 9999 FEW045 04/02 Q1017 NOSIG
  • 290320Z 17003KT 9999 FEW045 04/02 Q1017 NOSIG
  • 290250Z VRB02KT 9999 FEW045 05/02 Q1017 NOSIG

TAF TAF EBOS
Valide du 29 à 00h jusqu'au 30 à 06h UTC


282300Z 2900/3006 18006KT 9999 FEW030 SCT045
PROB30
TEMPO 2902/2906 2500 BR MIFG
BECMG 2914/2916 05010KT
BECMG 2919/2921 11010KT
Pas de NOTAMs connus pour ce terrain.



MET'MAP, la Météo Aéronautique d'un coup d'oeil ! - Copyright ORBIFLY Décembre 2007 - Disclaimer

ORBIFLY MET'MAP TEAM :

Programmation & Développement : Alexandra Zaïnal
Conception & Développement : Baudouin d'Aumeries
Co-Programmation & Développement : Marc-Olivier Méhu
Soutien technique & logistique : Manuel Goepfert

Contact : metmap@orbifly.com




SOURCES & CREDITS :

   NOAA